sensor_id;sensor_type;location;lat;lon;timestamp;pressure;altitude;pressure_sealevel;temperature;humidity
42105;BME280;61464;51.472;5.712;2022-12-31T00:04:06;100081.94;;;12.78;100.00
42105;BME280;61464;51.472;5.712;2022-12-31T04:42:49;100025.41;;;13.48;100.00
42105;BME280;61464;51.472;5.712;2022-12-31T04:52:23;100030.31;;;13.78;100.00
42105;BME280;61464;51.472;5.712;2022-12-31T04:56:23;100031.50;;;13.76;100.00
42105;BME280;61464;51.472;5.712;2022-12-31T16:37:05;100460.91;;;14.55;100.00
42105;BME280;61464;51.472;5.712;2022-12-31T16:39:38;100462.53;;;14.56;100.00
42105;BME280;61464;51.472;5.712;2022-12-31T16:44:40;100456.88;;;14.52;100.00
42105;BME280;61464;51.472;5.712;2022-12-31T16:47:21;100455.38;;;14.64;100.00
42105;BME280;61464;51.472;5.712;2022-12-31T16:52:44;100448.34;;;14.65;100.00
42105;BME280;61464;51.472;5.712;2022-12-31T16:55:25;100443.09;;;14.58;100.00
42105;BME280;61464;51.472;5.712;2022-12-31T16:58:10;100443.47;;;14.62;100.00
42105;BME280;61464;51.472;5.712;2022-12-31T17:00:41;100446.94;;;14.62;100.00
42105;BME280;61464;51.472;5.712;2022-12-31T17:06:16;100449.09;;;14.59;100.00
42105;BME280;61464;51.472;5.712;2022-12-31T17:11:35;100447.72;;;14.63;100.00
42105;BME280;61464;51.472;5.712;2022-12-31T17:17:05;100460.47;;;14.51;100.00
42105;BME280;61464;51.472;5.712;2022-12-31T17:19:56;100463.69;;;14.53;100.00
42105;BME280;61464;51.472;5.712;2022-12-31T17:25:05;100463.06;;;14.44;100.00
42105;BME280;61464;51.472;5.712;2022-12-31T17:27:35;100457.19;;;14.36;100.00
42105;BME280;61464;51.472;5.712;2022-12-31T17:30:39;100464.84;;;14.44;100.00
42105;BME280;61464;51.472;5.712;2022-12-31T17:35:40;100447.97;;;14.40;100.00
42105;BME280;61464;51.472;5.712;2022-12-31T17:40:54;100433.94;;;14.47;100.00
42105;BME280;61464;51.472;5.712;2022-12-31T17:43:35;100442.00;;;14.53;100.00
42105;BME280;61464;51.472;5.712;2022-12-31T17:46:14;100441.41;;;14.51;100.00
42105;BME280;61464;51.472;5.712;2022-12-31T17:48:50;100458.28;;;14.55;100.00
42105;BME280;61464;51.472;5.712;2022-12-31T17:51:19;100456.66;;;14.54;100.00
42105;BME280;61464;51.472;5.712;2022-12-31T17:53:45;100434.97;;;14.53;100.00
42105;BME280;61464;51.472;5.712;2022-12-31T17:56:13;100439.75;;;14.49;100.00
42105;BME280;61464;51.472;5.712;2022-12-31T17:58:50;100435.78;;;14.54;100.00
42105;BME280;61464;51.472;5.712;2022-12-31T18:01:20;100440.19;;;14.53;100.00
42105;BME280;61464;51.472;5.712;2022-12-31T18:03:48;100449.19;;;14.44;100.00
42105;BME280;61464;51.472;5.712;2022-12-31T18:06:16;100448.63;;;14.48;100.00
42105;BME280;61464;51.472;5.712;2022-12-31T18:08:46;100442.78;;;14.46;100.00
42105;BME280;61464;51.472;5.712;2022-12-31T18:11:22;100450.31;;;14.35;100.00
42105;BME280;61464;51.472;5.712;2022-12-31T18:13:52;100454.94;;;14.33;100.00
42105;BME280;61464;51.472;5.712;2022-12-31T18:16:18;100450.34;;;14.41;100.00
42105;BME280;61464;51.472;5.712;2022-12-31T18:18:48;100468.63;;;14.41;100.00
42105;BME280;61464;51.472;5.712;2022-12-31T18:21:30;100449.13;;;14.37;100.00
42105;BME280;61464;51.472;5.712;2022-12-31T18:24:02;100446.91;;;14.34;100.00
42105;BME280;61464;51.472;5.712;2022-12-31T18:26:29;100447.50;;;14.29;100.00
42105;BME280;61464;51.472;5.712;2022-12-31T18:29:04;100444.06;;;14.29;100.00
42105;BME280;61464;51.472;5.712;2022-12-31T18:31:35;100443.28;;;14.35;100.00
42105;BME280;61464;51.472;5.712;2022-12-31T18:34:01;100440.13;;;14.40;100.00
42105;BME280;61464;51.472;5.712;2022-12-31T18:36:29;100435.53;;;14.42;100.00
42105;BME280;61464;51.472;5.712;2022-12-31T18:38:55;100452.94;;;14.35;100.00
42105;BME280;61464;51.472;5.712;2022-12-31T18:41:25;100447.91;;;14.33;100.00
42105;BME280;61464;51.472;5.712;2022-12-31T18:43:53;100439.44;;;14.31;100.00
42105;BME280;61464;51.472;5.712;2022-12-31T18:46:22;100439.81;;;14.21;100.00
42105;BME280;61464;51.472;5.712;2022-12-31T18:48:49;100435.59;;;14.27;100.00
42105;BME280;61464;51.472;5.712;2022-12-31T18:51:20;100435.19;;;14.23;100.00
42105;BME280;61464;51.472;5.712;2022-12-31T18:53:48;100448.09;;;14.32;100.00
42105;BME280;61464;51.472;5.712;2022-12-31T18:56:18;100451.69;;;14.31;100.00
42105;BME280;61464;51.472;5.712;2022-12-31T18:58:56;100432.09;;;14.41;100.00
42105;BME280;61464;51.472;5.712;2022-12-31T19:01:33;100456.66;;;14.54;100.00
42105;BME280;61464;51.472;5.712;2022-12-31T19:04:15;100459.75;;;14.57;100.00
42105;BME280;61464;51.472;5.712;2022-12-31T19:06:43;100447.34;;;14.38;100.00
42105;BME280;61464;51.472;5.712;2022-12-31T19:09:10;100460.59;;;14.36;100.00
42105;BME280;61464;51.472;5.712;2022-12-31T19:11:57;100449.28;;;14.29;100.00
42105;BME280;61464;51.472;5.712;2022-12-31T19:14:25;100456.34;;;14.35;100.00
42105;BME280;61464;51.472;5.712;2022-12-31T19:16:59;100461.25;;;14.45;100.00
42105;BME280;61464;51.472;5.712;2022-12-31T19:19:32;100477.03;;;14.58;100.00
42105;BME280;61464;51.472;5.712;2022-12-31T19:22:18;100478.56;;;14.53;100.00
42105;BME280;61464;51.472;5.712;2022-12-31T19:24:49;100455.59;;;14.41;100.00
42105;BME280;61464;51.472;5.712;2022-12-31T19:27:15;100479.19;;;14.55;100.00
42105;BME280;61464;51.472;5.712;2022-12-31T19:29:41;100468.75;;;14.55;100.00
42105;BME280;61464;51.472;5.712;2022-12-31T19:32:14;100466.28;;;14.46;100.00
42105;BME280;61464;51.472;5.712;2022-12-31T19:34:41;100480.75;;;14.49;100.00
42105;BME280;61464;51.472;5.712;2022-12-31T19:37:14;100471.81;;;14.58;100.00
42105;BME280;61464;51.472;5.712;2022-12-31T19:39:41;100470.19;;;14.57;100.00
42105;BME280;61464;51.472;5.712;2022-12-31T19:42:21;100487.28;;;14.60;100.00
42105;BME280;61464;51.472;5.712;2022-12-31T19:44:48;100488.91;;;14.61;100.00
42105;BME280;61464;51.472;5.712;2022-12-31T19:47:20;100489.53;;;14.63;100.00
42105;BME280;61464;51.472;5.712;2022-12-31T19:49:50;100485.28;;;14.62;100.00
42105;BME280;61464;51.472;5.712;2022-12-31T19:52:19;100471.69;;;14.73;100.00
42105;BME280;61464;51.472;5.712;2022-12-31T19:54:57;100494.63;;;14.78;100.00
42105;BME280;61464;51.472;5.712;2022-12-31T19:57:26;100499.63;;;14.73;100.00
42105;BME280;61464;51.472;5.712;2022-12-31T19:59:52;100506.28;;;14.75;100.00
42105;BME280;61464;51.472;5.712;2022-12-31T20:02:26;100511.41;;;14.62;100.00
42105;BME280;61464;51.472;5.712;2022-12-31T20:04:57;100501.56;;;14.64;100.00
42105;BME280;61464;51.472;5.712;2022-12-31T20:07:27;100517.06;;;14.65;100.00
42105;BME280;61464;51.472;5.712;2022-12-31T20:09:56;100517.03;;;14.59;100.00
42105;BME280;61464;51.472;5.712;2022-12-31T20:12:26;100526.44;;;14.60;100.00
42105;BME280;61464;51.472;5.712;2022-12-31T20:14:53;100512.84;;;14.64;100.00
42105;BME280;61464;51.472;5.712;2022-12-31T20:19:58;100526.44;;;14.60;100.00
42105;BME280;61464;51.472;5.712;2022-12-31T20:22:27;100507.31;;;14.53;100.00
42105;BME280;61464;51.472;5.712;2022-12-31T20:24:53;100519.69;;;14.44;100.00
42105;BME280;61464;51.472;5.712;2022-12-31T20:27:19;100523.88;;;14.38;100.00
42105;BME280;61464;51.472;5.712;2022-12-31T20:29:53;100510.09;;;14.51;100.00
42105;BME280;61464;51.472;5.712;2022-12-31T20:32:44;100506.94;;;14.56;100.00
42105;BME280;61464;51.472;5.712;2022-12-31T20:35:16;100526.09;;;14.63;100.00
42105;BME280;61464;51.472;5.712;2022-12-31T20:37:42;100528.53;;;14.64;100.00
42105;BME280;61464;51.472;5.712;2022-12-31T20:40:12;100521.84;;;14.62;100.00
42105;BME280;61464;51.472;5.712;2022-12-31T20:42:44;100513.22;;;14.61;100.00
42105;BME280;61464;51.472;5.712;2022-12-31T20:45:12;100516.63;;;14.62;100.00
42105;BME280;61464;51.472;5.712;2022-12-31T20:47:38;100513.25;;;14.68;100.00
42105;BME280;61464;51.472;5.712;2022-12-31T20:50:08;100526.44;;;14.60;100.00
42105;BME280;61464;51.472;5.712;2022-12-31T20:52:46;100523.91;;;14.66;100.00
42105;BME280;61464;51.472;5.712;2022-12-31T20:55:12;100518.25;;;14.63;100.00
42105;BME280;61464;51.472;5.712;2022-12-31T20:57:49;100537.34;;;14.63;100.00
42105;BME280;61464;51.472;5.712;2022-12-31T21:00:18;100531.44;;;14.55;100.00
42105;BME280;61464;51.472;5.712;2022-12-31T21:02:44;100531.28;;;14.56;100.00
42105;BME280;61464;51.472;5.712;2022-12-31T21:05:10;100525.50;;;14.67;100.00
42105;BME280;61464;51.472;5.712;2022-12-31T21:10:34;100528.38;;;14.73;100.00
42105;BME280;61464;51.472;5.712;2022-12-31T21:13:09;100523.53;;;14.76;100.00
42105;BME280;61464;51.472;5.712;2022-12-31T21:15:49;100531.97;;;14.72;100.00
42105;BME280;61464;51.472;5.712;2022-12-31T21:18:16;100536.00;;;14.74;100.00
42105;BME280;61464;51.472;5.712;2022-12-31T21:20:58;100522.31;;;14.72;100.00
42105;BME280;61464;51.472;5.712;2022-12-31T21:23:25;100528.16;;;14.74;100.00
42105;BME280;61464;51.472;5.712;2022-12-31T21:25:51;100530.00;;;14.80;100.00
42105;BME280;61464;51.472;5.712;2022-12-31T21:28:48;100535.66;;;14.84;100.00
42105;BME280;61464;51.472;5.712;2022-12-31T21:31:18;100528.41;;;14.79;100.00
42105;BME280;61464;51.472;5.712;2022-12-31T21:33:51;100539.22;;;14.76;100.00
42105;BME280;61464;51.472;5.712;2022-12-31T21:36:20;100538.09;;;14.85;100.00
42105;BME280;61464;51.472;5.712;2022-12-31T21:38:49;100555.16;;;14.81;100.00
42105;BME280;61464;51.472;5.712;2022-12-31T21:41:21;100561.34;;;14.80;100.00
42105;BME280;61464;51.472;5.712;2022-12-31T21:44:08;100550.03;;;14.66;100.00
42105;BME280;61464;51.472;5.712;2022-12-31T21:46:39;100545.00;;;14.65;100.00
42105;BME280;61464;51.472;5.712;2022-12-31T21:49:05;100537.31;;;14.57;100.00
42105;BME280;61464;51.472;5.712;2022-12-31T21:51:42;100559.09;;;14.49;100.00
42105;BME280;61464;51.472;5.712;2022-12-31T21:54:29;100560.41;;;14.60;100.00
42105;BME280;61464;51.472;5.712;2022-12-31T21:57:56;100567.75;;;14.71;100.00
42105;BME280;61464;51.472;5.712;2022-12-31T22:00:25;100557.88;;;14.66;100.00
42105;BME280;61464;51.472;5.712;2022-12-31T22:06:26;100565.22;;;14.56;100.00
42105;BME280;61464;51.472;5.712;2022-12-31T22:08:56;100586.34;;;14.61;100.00
42105;BME280;61464;51.472;5.712;2022-12-31T22:11:34;100583.16;;;14.66;100.00
42105;BME280;61464;51.472;5.712;2022-12-31T22:14:00;100583.16;;;14.66;100.00
42105;BME280;61464;51.472;5.712;2022-12-31T22:16:27;100576.81;;;14.54;100.00
42105;BME280;61464;51.472;5.712;2022-12-31T22:19:11;100574.53;;;14.44;100.00
42105;BME280;61464;51.472;5.712;2022-12-31T22:21:49;100559.09;;;14.49;100.00
42105;BME280;61464;51.472;5.712;2022-12-31T22:24:16;100564.22;;;14.57;100.00
42105;BME280;61464;51.472;5.712;2022-12-31T22:26:54;100573.28;;;14.61;100.00
42105;BME280;61464;51.472;5.712;2022-12-31T22:29:36;100591.75;;;14.60;100.00
42105;BME280;61464;51.472;5.712;2022-12-31T22:36:10;100593.84;;;14.49;100.00
42105;BME280;61464;51.472;5.712;2022-12-31T22:42:14;100604.44;;;14.41;100.00
42105;BME280;61464;51.472;5.712;2022-12-31T22:45:22;100597.44;;;14.42;100.00
42105;BME280;61464;51.472;5.712;2022-12-31T22:48:20;100593.75;;;14.36;100.00
42105;BME280;61464;51.472;5.712;2022-12-31T22:51:25;100603.81;;;14.39;100.00
42105;BME280;61464;51.472;5.712;2022-12-31T23:00:56;100605.34;;;14.55;100.00
42105;BME280;61464;51.472;5.712;2022-12-31T23:03:40;100610.25;;;14.58;100.00
42105;BME280;61464;51.472;5.712;2022-12-31T23:06:32;100623.03;;;14.53;100.00
42105;BME280;61464;51.472;5.712;2022-12-31T23:12:12;100624.72;;;14.61;100.00
42105;BME280;61464;51.472;5.712;2022-12-31T23:14:38;100624.03;;;14.52;100.00
42105;BME280;61464;51.472;5.712;2022-12-31T23:17:43;100619.69;;;14.59;100.00
42105;BME280;61464;51.472;5.712;2022-12-31T23:20:44;100611.53;;;14.69;100.00
42105;BME280;61464;51.472;5.712;2022-12-31T23:23:32;100620.00;;;14.71;100.00
42105;BME280;61464;51.472;5.712;2022-12-31T23:26:01;100622.97;;;14.68;100.00
42105;BME280;61464;51.472;5.712;2022-12-31T23:28:32;100633.88;;;14.72;100.00
42105;BME280;61464;51.472;5.712;2022-12-31T23:31:12;100627.56;;;14.66;100.00
42105;BME280;61464;51.472;5.712;2022-12-31T23:34:15;100626.19;;;14.70;100.00
42105;BME280;61464;51.472;5.712;2022-12-31T23:36:57;100642.50;;;14.72;100.00
42105;BME280;61464;51.472;5.712;2022-12-31T23:39:35;100634.66;;;14.72;100.00
42105;BME280;61464;51.472;5.712;2022-12-31T23:42:33;100634.25;;;14.68;100.00
42105;BME280;61464;51.472;5.712;2022-12-31T23:45:15;100648.97;;;14.76;100.00
42105;BME280;61464;51.472;5.712;2022-12-31T23:47:49;100638.03;;;14.66;100.00
42105;BME280;61464;51.472;5.712;2022-12-31T23:53:43;100627.16;;;14.62;100.00
42105;BME280;61464;51.472;5.712;2022-12-31T23:56:40;100631.38;;;14.63;100.00
